Time;durP1;ratioP1;P1;durP2;ratioP2;P2;SDS_P1;SDS_P2;PMS_P1;PMS_P2;Temp;Humidity;BMP_temperature;BMP_pressure;BME280_temperature;BME280_humidity;BME280_pressure;Samples;Min_cycle;Max_cycle;Signal;HPM_P1;HPM_P2
2022/03/17 00:00:33;;;;;;;24.53;12.87;;;5.50;99.90;;;;;;2065158;28;20277;-75
2022/03/17 00:01:34;;;;;;;27.43;13.57;;;5.40;99.90;;;;;;2048618;29;20199;-74
2022/03/17 00:02:36;;;;;;;23.67;12.70;;;5.50;99.90;;;;;;2049097;29;20190;-74
2022/03/17 00:03:37;;;;;;;23.63;12.70;;;5.50;99.90;;;;;;2057435;28;20183;-74
2022/03/17 00:04:38;;;;;;;24.13;12.80;;;5.50;99.90;;;;;;2057029;28;20734;-74
2022/03/17 00:05:38;;;;;;;22.27;12.57;;;5.50;99.90;;;;;;2065150;28;20615;-75
2022/03/17 00:06:40;;;;;;;22.97;12.33;;;5.40;99.90;;;;;;2065184;28;20209;-74
2022/03/17 00:07:43;;;;;;;26.05;13.43;;;5.40;99.90;;;;;;2065333;28;20425;-74
2022/03/17 00:08:43;;;;;;;25.30;13.05;;;5.40;99.90;;;;;;2057724;28;20220;-74
2022/03/17 00:09:44;;;;;;;26.90;13.27;;;5.40;99.90;;;;;;2057805;28;20190;-74
2022/03/17 00:10:45;;;;;;;22.20;12.70;;;5.40;99.90;;;;;;2057137;28;20186;-74
2022/03/17 00:11:45;;;;;;;26.13;12.90;;;5.40;99.90;;;;;;2048599;28;20195;-74
2022/03/17 00:12:47;;;;;;;22.83;11.77;;;5.40;99.90;;;;;;2057171;28;20572;-74
2022/03/17 00:13:48;;;;;;;25.05;13.35;;;5.40;99.90;;;;;;2057954;28;20185;-74
2022/03/17 00:14:51;;;;;;;24.33;13.27;;;5.40;99.90;;;;;;2057634;28;20713;-74
2022/03/17 00:15:51;;;;;;;23.52;12.48;;;5.40;99.90;;;;;;2057258;28;20666;-74
2022/03/17 00:16:52;;;;;;;26.43;13.67;;;5.40;99.90;;;;;;2057119;28;20202;-75
2022/03/17 00:17:53;;;;;;;23.40;13.23;;;5.40;99.90;;;;;;2057071;28;20186;-75
2022/03/17 00:18:55;;;;;;;24.50;12.70;;;5.30;99.90;;;;;;2041354;29;20200;-74
2022/03/17 00:19:56;;;;;;;20.17;11.98;;;5.30;99.90;;;;;;2049117;28;20241;-74
2022/03/17 00:20:57;;;;;;;21.17;12.33;;;5.30;99.90;;;;;;2057148;28;20179;-74
2022/03/17 00:21:58;;;;;;;31.00;12.70;;;5.40;99.90;;;;;;2056472;28;20261;-74
2022/03/17 00:22:59;;;;;;;23.45;12.70;;;5.40;99.90;;;;;;2065273;28;20193;-74
2022/03/17 00:24:00;;;;;;;23.50;13.10;;;5.40;99.90;;;;;;2065243;28;20181;-74
2022/03/17 00:25:01;;;;;;;20.77;11.77;;;5.40;99.90;;;;;;2057022;28;20198;-74
2022/03/17 00:26:01;;;;;;;23.30;11.97;;;5.40;99.90;;;;;;2057093;28;20182;-75
2022/03/17 00:27:05;;;;;;;22.80;12.90;;;5.40;99.90;;;;;;2057135;28;20182;-75
2022/03/17 00:28:06;;;;;;;25.08;13.30;;;5.40;99.90;;;;;;2057365;28;20713;-74
2022/03/17 00:29:07;;;;;;;26.70;13.50;;;5.40;99.90;;;;;;2065127;28;20194;-74
2022/03/17 00:30:08;;;;;;;23.40;13.15;;;5.30;99.90;;;;;;2057637;28;20238;-74
2022/03/17 00:31:09;;;;;;;25.90;13.70;;;5.30;99.90;;;;;;2056382;28;20191;-74
2022/03/17 00:32:10;;;;;;;23.03;13.13;;;5.30;99.90;;;;;;2056892;28;20183;-74
2022/03/17 00:33:11;;;;;;;27.07;14.40;;;5.30;99.90;;;;;;2057064;28;20228;-75
2022/03/17 00:34:12;;;;;;;26.52;13.88;;;5.30;99.90;;;;;;2048916;28;20753;-74
2022/03/17 00:36:34;;;;;;;26.15;13.25;;;5.30;99.90;;;;;;2057006;28;20175;-74
2022/03/17 00:37:35;;;;;;;27.25;14.18;;;5.30;99.90;;;;;;2057022;28;20266;-74
2022/03/17 00:38:37;;;;;;;28.00;13.33;;;5.30;99.90;;;;;;2048791;28;20180;-74
2022/03/17 00:39:38;;;;;;;27.90;14.48;;;5.30;99.90;;;;;;2056704;28;20535;-74
2022/03/17 00:40:40;;;;;;;27.13;13.80;;;5.30;99.90;;;;;;2057489;28;20195;-74
2022/03/17 00:41:42;;;;;;;25.85;13.90;;;5.30;99.90;;;;;;2057126;28;20233;-75
2022/03/17 00:42:44;;;;;;;31.77;15.25;;;5.30;99.90;;;;;;2056782;28;20218;-74
2022/03/17 00:43:45;;;;;;;28.60;14.15;;;5.30;99.90;;;;;;2049296;28;20183;-74
2022/03/17 00:44:46;;;;;;;25.70;13.60;;;5.40;99.90;;;;;;2056903;28;20263;-74
2022/03/17 00:45:47;;;;;;;24.77;13.32;;;5.40;99.90;;;;;;2057006;28;20437;-74
2022/03/17 00:46:48;;;;;;;25.80;12.88;;;5.30;99.90;;;;;;2048993;28;20598;-74
2022/03/17 00:47:49;;;;;;;26.77;13.03;;;5.30;99.90;;;;;;2056958;28;20262;-74
2022/03/17 00:48:49;;;;;;;27.00;13.37;;;5.30;99.90;;;;;;2064734;28;20228;-75
2022/03/17 00:49:50;;;;;;;27.27;14.93;;;5.40;99.90;;;;;;2065003;28;20186;-74
2022/03/17 00:50:50;;;;;;;25.17;12.83;;;5.40;99.90;;;;;;2056816;28;20186;-75
2022/03/17 00:51:51;;;;;;;27.90;14.27;;;5.40;99.90;;;;;;2048331;29;20675;-74
2022/03/17 00:52:52;;;;;;;27.40;13.67;;;5.40;99.90;;;;;;2048864;29;20203;-74
2022/03/17 00:53:53;;;;;;;21.63;12.32;;;5.40;99.90;;;;;;2057078;28;20202;-74
2022/03/17 00:54:54;;;;;;;26.30;14.03;;;5.40;99.90;;;;;;2056804;28;20733;-74
2022/03/17 00:55:54;;;;;;;24.40;13.30;;;5.40;99.90;;;;;;2048905;29;20187;-75
2022/03/17 00:56:55;;;;;;;26.13;12.97;;;5.40;99.90;;;;;;2056710;28;20179;-74
2022/03/17 00:57:56;;;;;;;25.43;12.97;;;5.40;99.90;;;;;;2064866;28;20189;-75
2022/03/17 00:58:57;;;;;;;30.60;13.93;;;5.50;99.90;;;;;;2056540;28;20217;-74
2022/03/17 00:59:57;;;;;;;27.90;13.97;;;5.50;99.90;;;;;;2056780;28;20245;-75
2022/03/17 01:00:58;;;;;;;24.10;13.60;;;5.50;99.90;;;;;;2057361;28;20859;-74
2022/03/17 01:01:59;;;;;;;23.90;13.33;;;5.50;99.90;;;;;;2056944;28;20179;-74
2022/03/17 01:03:01;;;;;;;24.63;14.27;;;5.40;99.90;;;;;;2057348;28;20195;-75
2022/03/17 01:04:01;;;;;;;25.90;13.70;;;5.40;99.90;;;;;;2056844;28;20422;-74
2022/03/17 01:05:03;;;;;;;23.37;13.80;;;5.40;99.90;;;;;;2056715;28;20230;-75
2022/03/17 01:06:04;;;;;;;25.15;13.43;;;5.40;99.90;;;;;;2056775;28;20302;-74
2022/03/17 01:07:04;;;;;;;22.27;12.73;;;5.40;99.90;;;;;;2056671;28;20179;-75
2022/03/17 01:08:05;;;;;;;26.57;12.77;;;5.40;99.90;;;;;;2057401;28;20195;-74
2022/03/17 01:09:06;;;;;;;26.37;14.00;;;5.50;99.90;;;;;;2056746;28;20647;-74
2022/03/17 01:10:09;;;;;;;25.93;13.37;;;5.50;99.90;;;;;;2048960;29;20298;-74
2022/03/17 01:11:10;;;;;;;26.35;13.30;;;5.50;99.90;;;;;;2056115;28;20788;-74
2022/03/17 01:12:10;;;;;;;25.13;13.43;;;5.50;99.90;;;;;;2048941;28;20288;-75
2022/03/17 01:13:11;;;;;;;29.63;14.03;;;5.50;99.90;;;;;;2056563;28;20498;-74
2022/03/17 01:14:13;;;;;;;26.53;14.77;;;5.50;99.90;;;;;;2056797;28;20187;-74
2022/03/17 01:15:16;;;;;;;26.80;13.80;;;5.50;99.90;;;;;;2048877;28;20215;-74
2022/03/17 01:16:17;;;;;;;24.10;13.38;;;5.50;99.90;;;;;;2057025;28;20182;-74
2022/03/17 01:17:17;;;;;;;28.83;15.40;;;5.60;99.90;;;;;;2064840;28;20230;-74
2022/03/17 01:18:21;;;;;;;22.97;12.13;;;5.50;99.90;;;;;;2064465;28;20190;-74
2022/03/17 01:19:21;;;;;;;26.60;14.82;;;5.50;99.90;;;;;;2064624;28;20182;-74
2022/03/17 01:20:22;;;;;;;24.80;13.67;;;5.60;99.90;;;;;;2056714;28;20282;-75
2022/03/17 01:21:23;;;;;;;29.40;15.77;;;5.60;99.90;;;;;;2048074;28;20237;-74
2022/03/17 01:22:23;;;;;;;28.37;14.73;;;5.60;99.90;;;;;;2056564;28;20650;-74
2022/03/17 01:23:24;;;;;;;33.73;16.87;;;5.70;99.90;;;;;;2056629;28;20191;-74
2022/03/17 01:24:25;;;;;;;22.13;13.73;;;5.60;99.90;;;;;;2056607;28;20187;-74
2022/03/17 01:25:26;;;;;;;28.70;14.77;;;5.60;99.90;;;;;;2064701;28;20214;-74
2022/03/17 01:26:27;;;;;;;29.77;14.60;;;5.60;99.90;;;;;;2064543;28;20181;-74
2022/03/17 01:27:29;;;;;;;28.23;14.87;;;5.50;99.90;;;;;;2056683;28;20183;-74
2022/03/17 01:28:29;;;;;;;27.85;15.55;;;5.60;99.90;;;;;;2048798;28;20179;-74
2022/03/17 01:29:30;;;;;;;28.63;14.63;;;5.50;99.90;;;;;;2056735;28;20218;-74
2022/03/17 01:30:31;;;;;;;28.17;13.90;;;5.60;99.90;;;;;;2064525;28;20635;-74
2022/03/17 01:31:32;;;;;;;26.93;13.87;;;5.60;99.90;;;;;;2056056;28;20573;-74
2022/03/17 01:32:32;;;;;;;27.87;13.63;;;5.60;99.90;;;;;;2056372;28;20279;-74
2022/03/17 01:33:33;;;;;;;27.90;14.27;;;5.60;99.90;;;;;;2056839;28;20270;-74
2022/03/17 01:34:34;;;;;;;26.30;15.17;;;5.70;99.90;;;;;;2048535;29;20219;-74
2022/03/17 01:35:34;;;;;;;33.17;16.10;;;5.70;99.90;;;;;;2048628;29;20207;-74
2022/03/17 01:36:35;;;;;;;29.70;14.23;;;5.60;99.90;;;;;;2056539;28;20198;-75
2022/03/17 01:37:36;;;;;;;24.90;13.60;;;5.60;99.90;;;;;;2064524;28;20190;-74
2022/03/17 01:38:37;;;;;;;22.17;12.88;;;5.60;99.90;;;;;;2063387;28;20614;-75
2022/03/17 01:39:37;;;;;;;20.03;11.60;;;5.60;99.90;;;;;;2048369;29;20286;-74
2022/03/17 01:40:38;;;;;;;22.87;12.07;;;5.50;99.90;;;;;;2048437;28;20262;-74
2022/03/17 01:41:39;;;;;;;21.10;12.43;;;5.40;99.90;;;;;;2056002;28;20175;-74
2022/03/17 01:42:40;;;;;;;27.33;13.85;;;5.40;99.90;;;;;;2064448;28;20217;-74
2022/03/17 01:43:41;;;;;;;25.00;12.37;;;5.40;99.90;;;;;;2056609;28;20685;-74
2022/03/17 01:44:42;;;;;;;21.80;11.23;;;5.40;99.90;;;;;;2056416;28;20201;-74
2022/03/17 01:45:42;;;;;;;24.00;12.60;;;5.40;99.90;;;;;;2056454;28;20244;-75
2022/03/17 01:48:03;;;;;;;20.33;12.55;;;5.40;99.90;;;;;;2064594;28;20709;-74
2022/03/17 01:49:04;;;;;;;22.27;12.57;;;5.40;99.90;;;;;;2058948;28;20179;-74
2022/03/17 01:50:12;;;;;;;23.90;13.00;;;5.40;99.90;;;;;;2056379;28;20682;-75
2022/03/17 01:51:13;;;;;;;22.80;13.27;;;5.40;99.90;;;;;;2056777;28;20961;-75
2022/03/17 01:52:14;;;;;;;22.40;12.33;;;5.40;99.90;;;;;;2064498;28;20217;-74
2022/03/17 01:53:15;;;;;;;23.17;12.40;;;5.40;99.90;;;;;;2064327;28;20650;-75
2022/03/17 01:54:19;;;;;;;25.90;12.87;;;5.50;99.90;;;;;;2056214;28;20195;-74
2022/03/17 01:55:20;;;;;;;26.30;14.20;;;5.40;99.90;;;;;;2056633;28;20542;-74
2022/03/17 01:56:21;;;;;;;22.23;13.30;;;5.40;99.90;;;;;;2048635;28;20250;-74
2022/03/17 01:57:22;;;;;;;24.97;14.80;;;5.40;99.90;;;;;;2056527;28;20235;-74
2022/03/17 01:58:24;;;;;;;29.17;14.73;;;5.40;99.90;;;;;;2048480;29;20234;-74
2022/03/17 01:59:31;;;;;;;31.17;15.15;;;5.40;99.90;;;;;;2056422;28;20214;-73
2022/03/17 02:00:32;;;;;;;27.65;14.10;;;5.20;99.90;;;;;;2064493;28;20198;-74
2022/03/17 02:01:33;;;;;;;25.37;12.80;;;5.30;99.90;;;;;;2055701;28;20202;-75
2022/03/17 02:02:34;;;;;;;26.80;13.37;;;5.30;99.90;;;;;;2056349;28;20194;-74
2022/03/17 02:03:34;;;;;;;23.53;13.20;;;5.30;99.90;;;;;;2064354;28;20277;-75
2022/03/17 02:04:36;;;;;;;29.77;14.37;;;5.40;99.90;;;;;;2072562;28;20177;-74
2022/03/17 02:05:36;;;;;;;24.13;12.85;;;5.40;99.90;;;;;;2072384;28;20380;-74
2022/03/17 02:06:37;;;;;;;25.10;13.40;;;5.40;99.90;;;;;;2072491;28;20192;-75
2022/03/17 02:07:41;;;;;;;30.03;15.23;;;5.40;99.90;;;;;;2064222;28;20204;-74
2022/03/17 02:08:42;;;;;;;25.30;13.93;;;5.50;99.90;;;;;;2064779;28;20182;-74
2022/03/17 02:09:44;;;;;;;29.17;14.17;;;5.50;99.90;;;;;;2072440;28;20209;-74
2022/03/17 02:13:24;;;;;;;25.05;12.65;;;5.60;99.90;;;;;;2064553;28;20174;-75
2022/03/17 02:14:25;;;;;;;29.90;14.83;;;5.60;99.90;;;;;;2064420;28;20198;-75
2022/03/17 02:15:32;;;;;;;28.67;15.00;;;5.60;99.90;;;;;;2064287;28;20675;-75
2022/03/17 02:16:32;;;;;;;24.95;13.48;;;5.50;99.90;;;;;;2056155;28;20278;-75
2022/03/17 02:17:39;;;;;;;24.17;13.07;;;5.50;99.90;;;;;;2056963;28;20764;-75
2022/03/17 02:18:41;;;;;;;25.88;12.50;;;5.50;99.90;;;;;;2064314;28;20617;-75
2022/03/17 02:19:42;;;;;;;24.10;13.10;;;5.50;99.90;;;;;;2064337;28;20222;-75
2022/03/17 02:20:43;;;;;;;29.40;15.15;;;5.60;99.90;;;;;;2064186;28;20178;-75
2022/03/17 02:21:48;;;;;;;22.23;11.77;;;5.50;99.90;;;;;;2055819;28;20179;-75
2022/03/17 02:22:50;;;;;;;22.63;11.82;;;5.50;99.90;;;;;;2056575;28;20725;-74
2022/03/17 02:26:31;;;;;;;22.85;11.90;;;5.50;99.90;;;;;;2069039;28;20854;-75
2022/03/17 02:27:45;;;;;;;26.80;13.52;;;5.60;99.90;;;;;;2064189;28;20221;-75
2022/03/17 02:28:46;;;;;;;27.40;13.82;;;5.50;99.90;;;;;;2064349;28;20229;-75
2022/03/17 02:29:47;;;;;;;26.88;13.93;;;5.50;99.90;;;;;;2064655;28;20189;-76
2022/03/17 02:30:48;;;;;;;24.67;12.90;;;5.50;99.90;;;;;;2064606;28;20216;-75
2022/03/17 02:31:50;;;;;;;21.23;12.55;;;5.50;99.90;;;;;;2063535;28;20250;-75
2022/03/17 02:32:59;;;;;;;22.90;13.30;;;5.40;99.90;;;;;;2055859;28;20230;-75
2022/03/17 02:33:59;;;;;;;26.98;13.25;;;5.40;99.90;;;;;;2057368;28;20167;-75
2022/03/17 02:35:10;;;;;;;26.20;12.63;;;5.40;99.90;;;;;;2064126;28;20182;-75
2022/03/17 02:36:11;;;;;;;24.58;12.52;;;5.50;99.90;;;;;;2064142;28;20580;-74
2022/03/17 02:37:13;;;;;;;25.98;13.25;;;5.50;99.90;;;;;;2063986;28;20253;-75
2022/03/17 02:38:15;;;;;;;27.00;13.02;;;5.60;99.90;;;;;;2064145;28;20186;-75
2022/03/17 02:39:18;;;;;;;26.45;13.93;;;5.60;99.90;;;;;;2055937;28;20197;-75
2022/03/17 02:40:19;;;;;;;23.15;13.27;;;5.60;99.90;;;;;;2064088;28;20179;-75
2022/03/17 02:41:23;;;;;;;23.90;13.23;;;5.50;99.90;;;;;;2055252;28;20210;-75
2022/03/17 02:42:24;;;;;;;23.23;13.43;;;5.50;99.90;;;;;;2064056;28;20274;-75
2022/03/17 02:43:26;;;;;;;23.77;13.88;;;5.50;99.90;;;;;;2064353;28;20200;-75
2022/03/17 02:44:27;;;;;;;22.95;13.60;;;5.50;99.90;;;;;;2071900;28;20311;-75
2022/03/17 02:45:27;;;;;;;24.40;12.80;;;5.50;99.90;;;;;;2064704;28;20240;-75
2022/03/17 02:46:28;;;;;;;21.93;12.37;;;5.50;99.90;;;;;;2064849;28;20193;-75
2022/03/17 02:47:29;;;;;;;24.43;11.50;;;5.50;99.90;;;;;;2064678;28;20182;-75
2022/03/17 02:48:30;;;;;;;27.90;14.30;;;5.50;99.90;;;;;;2064240;28;20174;-74
2022/03/17 02:49:30;;;;;;;23.53;12.67;;;5.50;99.90;;;;;;2063758;28;20182;-75
2022/03/17 02:50:34;;;;;;;26.17;12.80;;;5.50;99.90;;;;;;2056009;28;20234;-74
2022/03/17 02:51:34;;;;;;;17.83;11.20;;;5.40;99.90;;;;;;2055927;28;20175;-74
2022/03/17 02:52:35;;;;;;;20.70;11.53;;;5.40;99.90;;;;;;2063983;28;20193;-75
2022/03/17 02:53:36;;;;;;;22.47;12.10;;;5.50;99.90;;;;;;2064076;28;20192;-75
2022/03/17 02:54:36;;;;;;;23.87;11.80;;;5.50;99.90;;;;;;2063871;28;20182;-75
2022/03/17 02:55:43;;;;;;;21.40;12.37;;;5.50;99.90;;;;;;2055900;28;20190;-75
2022/03/17 02:56:43;;;;;;;28.52;12.63;;;5.60;99.90;;;;;;2056732;28;20225;-75
2022/03/17 02:57:45;;;;;;;22.97;12.57;;;5.50;99.90;;;;;;2064046;28;20182;-75
2022/03/17 02:58:46;;;;;;;23.42;12.68;;;5.50;99.90;;;;;;2064038;28;20186;-75
2022/03/17 02:59:48;;;;;;;22.87;12.10;;;5.50;99.90;;;;;;2055748;28;20221;-75
2022/03/17 03:00:49;;;;;;;19.85;10.85;;;5.50;99.90;;;;;;2056127;28;20183;-75
2022/03/17 03:01:50;;;;;;;20.73;11.37;;;5.50;99.90;;;;;;2062912;28;20183;-75
2022/03/17 03:02:51;;;;;;;23.52;11.38;;;5.50;99.90;;;;;;2063922;28;20672;-75
2022/03/17 03:03:52;;;;;;;26.20;12.93;;;5.50;99.90;;;;;;2063910;28;20186;-74
2022/03/17 03:04:52;;;;;;;21.73;11.73;;;5.50;99.90;;;;;;2063904;28;20183;-74
2022/03/17 03:05:53;;;;;;;20.10;11.50;;;5.50;99.90;;;;;;2055841;28;20186;-75
2022/03/17 03:06:54;;;;;;;18.40;10.90;;;5.40;99.90;;;;;;2063902;28;20179;-74
2022/03/17 03:07:55;;;;;;;19.00;11.17;;;5.40;99.90;;;;;;2071826;28;20284;-74
2022/03/17 03:08:55;;;;;;;20.47;11.63;;;5.50;99.90;;;;;;2063817;28;20201;-75
2022/03/17 03:09:56;;;;;;;17.03;10.77;;;5.50;99.90;;;;;;2063815;28;20190;-75
2022/03/17 03:10:57;;;;;;;22.10;11.23;;;5.50;99.90;;;;;;2063827;28;20187;-75
2022/03/17 03:11:58;;;;;;;23.20;11.13;;;5.60;99.90;;;;;;2063242;28;20206;-75
2022/03/17 03:12:59;;;;;;;17.87;10.83;;;5.60;99.90;;;;;;2064032;28;20205;-75
2022/03/17 03:14:00;;;;;;;22.45;10.07;;;5.60;99.90;;;;;;2055971;28;20906;-75
2022/03/17 03:15:01;;;;;;;18.20;10.57;;;5.70;99.90;;;;;;2063880;28;20193;-76
2022/03/17 03:16:03;;;;;;;18.85;11.23;;;5.70;99.90;;;;;;2064441;28;20190;-75
2022/03/17 03:17:04;;;;;;;18.23;10.60;;;5.70;99.90;;;;;;2055847;28;20187;-75
2022/03/17 03:18:05;;;;;;;22.87;11.90;;;5.70;99.90;;;;;;2047988;29;20180;-75
2022/03/17 03:19:06;;;;;;;22.02;10.75;;;5.70;99.90;;;;;;2055807;28;20429;-75
2022/03/17 03:20:08;;;;;;;21.10;11.87;;;5.70;99.90;;;;;;2063870;28;20240;-75
2022/03/17 03:21:08;;;;;;;24.33;12.07;;;5.70;99.90;;;;;;2063119;28;20217;-75
2022/03/17 03:22:09;;;;;;;21.70;11.97;;;5.60;99.90;;;;;;2063950;28;20178;-75
2022/03/17 03:23:10;;;;;;;21.83;12.03;;;5.70;99.90;;;;;;2063733;28;20574;-75
2022/03/17 03:24:12;;;;;;;20.07;11.17;;;5.70;99.90;;;;;;2063931;28;20281;-75
2022/03/17 03:25:13;;;;;;;20.77;11.43;;;5.70;99.90;;;;;;2063797;28;20178;-75
2022/03/17 03:26:13;;;;;;;19.63;11.30;;;5.70;99.90;;;;;;2063845;28;20182;-75
2022/03/17 03:27:14;;;;;;;26.27;13.13;;;5.70;99.90;;;;;;2063786;28;20189;-75
2022/03/17 03:28:15;;;;;;;20.00;10.80;;;5.70;99.90;;;;;;2063921;28;20210;-75
2022/03/17 03:29:28;;;;;;;24.83;12.00;;;5.60;99.90;;;;;;2047681;28;20184;-75
2022/03/17 03:30:28;;;;;;;22.98;10.95;;;5.70;99.90;;;;;;2057443;28;20609;-75
2022/03/17 03:31:29;;;;;;;21.10;11.80;;;5.70;99.90;;;;;;2063180;28;20178;-75
2022/03/17 03:32:30;;;;;;;22.80;11.47;;;5.70;99.90;;;;;;2063562;28;20662;-77
2022/03/17 03:33:30;;;;;;;19.23;11.43;;;5.70;99.90;;;;;;2063822;28;20179;-75
2022/03/17 03:34:33;;;;;;;24.80;12.70;;;5.80;99.90;;;;;;2063940;28;20182;-74
2022/03/17 03:38:15;;;;;;;20.58;10.93;;;5.80;99.90;;;;;;2060935;28;20174;-74
2022/03/17 03:39:16;;;;;;;18.47;10.77;;;5.70;99.90;;;;;;2057888;28;20545;-74
2022/03/17 03:40:17;;;;;;;18.53;10.10;;;5.80;99.90;;;;;;2055808;28;20261;-75
2022/03/17 03:41:18;;;;;;;19.20;10.40;;;5.70;99.90;;;;;;2055061;28;20182;-75
2022/03/17 03:42:19;;;;;;;22.67;11.47;;;5.80;99.90;;;;;;2063832;28;20249;-74
2022/03/17 03:43:20;;;;;;;27.85;11.70;;;5.80;99.90;;;;;;2063912;28;20209;-74
2022/03/17 03:44:20;;;;;;;22.20;11.50;;;5.80;99.90;;;;;;2063923;28;20216;-75
2022/03/17 03:45:21;;;;;;;24.23;12.77;;;5.80;99.90;;;;;;2063788;28;20594;-74
2022/03/17 03:46:22;;;;;;;20.77;10.80;;;5.70;99.90;;;;;;2063929;28;20182;-74
2022/03/17 03:47:23;;;;;;;23.83;11.43;;;5.70;99.90;;;;;;2063341;28;20178;-74
2022/03/17 03:48:23;;;;;;;21.57;11.17;;;5.80;99.90;;;;;;2063783;28;20183;-74
2022/03/17 03:49:24;;;;;;;20.07;10.60;;;5.80;99.90;;;;;;2064422;28;20206;-74
2022/03/17 03:50:25;;;;;;;20.07;10.23;;;5.80;99.90;;;;;;2063852;28;20187;-74
2022/03/17 03:51:26;;;;;;;17.20;10.30;;;5.80;99.90;;;;;;2063199;28;20186;-74
2022/03/17 03:52:26;;;;;;;17.00;10.23;;;5.80;99.90;;;;;;2064331;28;20193;-74
2022/03/17 03:54:12;;;;;;;16.00;9.00;;;5.80;99.90;;;;;;2063826;28;20189;-74
2022/03/17 03:54:48;;;;;;;16.98;9.95;;;5.90;99.90;;;;;;2058308;28;20579;-74
2022/03/17 03:55:48;;;;;;;22.20;8.73;;;6.00;99.90;;;;;;2066213;28;20233;-74
2022/03/17 03:56:53;;;;;;;15.67;8.97;;;5.90;99.90;;;;;;2071745;28;20225;-75
2022/03/17 03:57:54;;;;;;;15.95;9.27;;;6.00;99.90;;;;;;2063783;28;20181;-74
2022/03/17 03:58:55;;;;;;;18.80;9.50;;;6.00;99.90;;;;;;2063617;28;20576;-74
2022/03/17 03:59:56;;;;;;;19.83;10.00;;;6.00;99.90;;;;;;2055406;28;20230;-74
2022/03/17 04:00:56;;;;;;;17.63;10.30;;;6.00;99.90;;;;;;2055728;28;20175;-75
2022/03/17 04:02:02;;;;;;;21.37;10.07;;;5.90;99.90;;;;;;2055126;28;20329;-74
2022/03/17 04:03:03;;;;;;;16.83;9.05;;;5.90;99.90;;;;;;2056225;28;20270;-74
2022/03/17 04:04:04;;;;;;;15.95;9.38;;;5.90;99.90;;;;;;2055640;28;20205;-74
2022/03/17 04:05:05;;;;;;;18.73;9.60;;;6.00;99.90;;;;;;2063845;28;20186;-74
2022/03/17 04:06:06;;;;;;;18.15;8.90;;;5.90;99.90;;;;;;2063602;28;20220;-74
2022/03/17 04:07:10;;;;;;;17.97;9.43;;;5.90;99.90;;;;;;2063638;28;20237;-74
2022/03/17 04:08:11;;;;;;;17.08;8.68;;;5.90;99.90;;;;;;2056002;28;20234;-75
2022/03/17 04:09:13;;;;;;;13.90;8.00;;;5.90;99.90;;;;;;2056040;28;20180;-74
2022/03/17 04:10:14;;;;;;;13.88;7.97;;;5.90;99.90;;;;;;2055853;28;20183;-74
2022/03/17 04:11:15;;;;;;;16.00;8.50;;;6.00;99.90;;;;;;2055100;28;20269;-75
2022/03/17 04:12:15;;;;;;;14.27;8.07;;;5.90;99.90;;;;;;2063891;28;20190;-74
2022/03/17 04:13:16;;;;;;;13.90;7.30;;;5.90;99.90;;;;;;2064278;28;20210;-75
2022/03/17 04:14:17;;;;;;;15.27;9.00;;;5.90;99.90;;;;;;2065130;28;20605;-74
2022/03/17 04:15:18;;;;;;;16.33;8.63;;;6.00;99.90;;;;;;2056943;28;20268;-74
2022/03/17 04:16:18;;;;;;;14.13;8.20;;;6.00;99.90;;;;;;2049215;29;20745;-74
2022/03/17 04:17:19;;;;;;;17.77;8.63;;;6.00;99.90;;;;;;2065089;28;20595;-74
2022/03/17 04:18:20;;;;;;;15.63;8.70;;;6.00;99.90;;;;;;2065136;28;20571;-74
2022/03/17 04:19:21;;;;;;;13.23;7.07;;;6.00;99.90;;;;;;2048940;28;20194;-74
2022/03/17 04:20:22;;;;;;;14.87;7.90;;;6.00;99.90;;;;;;2057131;28;20191;-75
2022/03/17 04:21:23;;;;;;;16.70;9.25;;;6.00;99.90;;;;;;2064447;28;20191;-75
2022/03/17 04:22:23;;;;;;;16.73;8.17;;;5.90;99.90;;;;;;2057163;28;20234;-74
2022/03/17 04:23:24;;;;;;;11.80;6.77;;;5.90;99.90;;;;;;2065061;28;20206;-74
2022/03/17 04:24:25;;;;;;;12.07;6.90;;;5.90;99.90;;;;;;2065043;28;20302;-74
2022/03/17 04:25:26;;;;;;;12.17;7.03;;;5.90;99.90;;;;;;2056893;28;20757;-74
2022/03/17 04:26:27;;;;;;;14.77;7.27;;;6.00;99.90;;;;;;2065132;28;20174;-74
2022/03/17 04:27:28;;;;;;;12.07;6.30;;;5.90;99.90;;;;;;2064945;28;20178;-74
2022/03/17 04:28:28;;;;;;;11.57;6.67;;;6.00;99.90;;;;;;2065024;28;20269;-74
2022/03/17 04:29:29;;;;;;;14.37;6.80;;;6.00;99.90;;;;;;2064945;28;20170;-74
2022/03/17 04:30:30;;;;;;;11.17;7.17;;;6.00;99.90;;;;;;2057068;28;20175;-75
2022/03/17 04:31:30;;;;;;;8.57;6.17;;;6.10;99.90;;;;;;2064373;28;20669;-74
2022/03/17 04:32:31;;;;;;;9.27;6.47;;;6.10;99.90;;;;;;2065673;28;20383;-73
2022/03/17 04:33:32;;;;;;;13.43;6.10;;;6.10;99.90;;;;;;2064548;28;20429;-73
2022/03/17 04:34:33;;;;;;;13.43;5.90;;;6.10;99.90;;;;;;2065062;28;20193;-73
2022/03/17 04:35:33;;;;;;;9.57;5.87;;;6.10;99.90;;;;;;2064803;28;20175;-73
2022/03/17 04:36:34;;;;;;;7.87;5.20;;;6.10;99.90;;;;;;2056940;28;20579;-73
2022/03/17 04:37:35;;;;;;;11.97;6.17;;;6.10;99.90;;;;;;2056860;28;20187;-73
2022/03/17 04:38:36;;;;;;;11.30;5.70;;;6.10;99.90;;;;;;2056999;28;20850;-73
2022/03/17 04:39:37;;;;;;;11.40;7.07;;;6.10;99.90;;;;;;2064802;28;20194;-73
2022/03/17 04:40:38;;;;;;;10.83;6.60;;;6.10;99.90;;;;;;2064945;28;20183;-73
2022/03/17 04:41:41;;;;;;;11.63;6.10;;;6.10;99.90;;;;;;2056217;28;20273;-73
2022/03/17 04:42:41;;;;;;;11.48;6.15;;;6.10;99.90;;;;;;2056884;28;20185;-73
2022/03/17 04:43:42;;;;;;;9.53;5.57;;;6.10;99.90;;;;;;2048815;28;20198;-74
2022/03/17 04:44:43;;;;;;;8.07;5.50;;;6.20;99.90;;;;;;2057023;28;20179;-74
2022/03/17 04:45:45;;;;;;;9.20;5.50;;;6.20;99.90;;;;;;2064921;28;20566;-72
2022/03/17 04:46:46;;;;;;;11.93;5.82;;;6.20;99.90;;;;;;2065671;28;20185;-73
2022/03/17 04:47:47;;;;;;;11.55;6.32;;;6.20;99.90;;;;;;2064889;28;20174;-73
2022/03/17 04:48:48;;;;;;;11.37;6.43;;;6.20;99.90;;;;;;2065237;28;20174;-73
2022/03/17 04:49:49;;;;;;;13.27;7.10;;;6.20;99.90;;;;;;2064914;28;20174;-73
2022/03/17 04:50:49;;;;;;;12.67;6.87;;;6.10;99.90;;;;;;2056941;28;20588;-73
2022/03/17 04:51:50;;;;;;;10.13;5.87;;;6.10;99.90;;;;;;2064451;28;20182;-75
2022/03/17 04:54:10;;;;;;;9.38;6.18;;;6.10;99.90;;;;;;2064788;28;20245;-74
2022/03/17 04:55:11;;;;;;;14.33;6.97;;;6.10;99.90;;;;;;2065034;28;20182;-73
2022/03/17 04:56:16;;;;;;;14.40;6.60;;;6.10;99.90;;;;;;2065350;28;20182;-73
2022/03/17 04:57:17;;;;;;;10.82;6.28;;;6.10;99.90;;;;;;2064817;28;20687;-73
2022/03/17 04:58:18;;;;;;;11.57;6.57;;;6.10;99.90;;;;;;2056782;28;20203;-73
2022/03/17 04:59:20;;;;;;;12.27;6.00;;;6.10;99.90;;;;;;2056703;28;20579;-74
2022/03/17 05:00:21;;;;;;;11.70;6.40;;;6.10;99.90;;;;;;2064739;28;20261;-73
2022/03/17 05:01:23;;;;;;;19.50;11.87;;;6.10;99.90;;;;;;2064722;28;20194;-74
2022/03/17 05:02:24;;;;;;;16.05;10.60;;;6.10;99.90;;;;;;2065307;28;20516;-73
2022/03/17 05:03:25;;;;;;;22.53;12.57;;;6.00;99.90;;;;;;2072803;28;20193;-73
2022/03/17 05:04:26;;;;;;;16.45;10.45;;;6.00;99.90;;;;;;2072812;28;20205;-72
2022/03/17 05:05:27;;;;;;;15.70;9.67;;;6.00;99.90;;;;;;2065350;28;20182;-74
2022/03/17 05:06:27;;;;;;;15.70;10.25;;;6.10;99.90;;;;;;2065298;28;20171;-73
2022/03/17 05:07:28;;;;;;;16.03;9.63;;;6.10;99.90;;;;;;2065384;28;20684;-75
2022/03/17 05:08:29;;;;;;;12.30;7.63;;;6.10;99.90;;;;;;2065505;28;20182;-72
2022/03/17 05:09:30;;;;;;;10.45;6.43;;;6.10;99.90;;;;;;2065733;28;20175;-74
2022/03/17 05:10:31;;;;;;;12.20;5.73;;;6.10;99.90;;;;;;2066080;28;20272;-73
2022/03/17 05:11:32;;;;;;;11.88;6.53;;;6.10;99.90;;;;;;2064059;28;20576;-74
2022/03/17 05:12:32;;;;;;;15.17;8.13;;;6.20;99.90;;;;;;2064724;28;20186;-75
2022/03/17 05:13:34;;;;;;;15.33;8.27;;;6.10;99.90;;;;;;2065365;28;20495;-74
2022/03/17 05:14:35;;;;;;;15.02;7.68;;;6.10;99.90;;;;;;2056595;28;20256;-74
2022/03/17 05:15:36;;;;;;;19.20;9.33;;;6.10;99.90;;;;;;2040677;29;20679;-75
2022/03/17 05:16:38;;;;;;;18.30;7.88;;;6.10;99.90;;;;;;2056678;28;20784;-74
2022/03/17 05:17:40;;;;;;;17.27;7.63;;;6.10;99.90;;;;;;2064637;28;20194;-74
2022/03/17 05:18:41;;;;;;;13.27;7.07;;;6.10;99.90;;;;;;2048961;28;20592;-75
2022/03/17 05:19:41;;;;;;;16.37;7.60;;;6.10;99.90;;;;;;2056411;28;20210;-74
2022/03/17 05:20:42;;;;;;;14.00;6.60;;;6.10;99.90;;;;;;2072744;28;20200;-74
2022/03/17 05:21:44;;;;;;;17.17;7.10;;;6.10;99.90;;;;;;2055755;28;20202;-75
2022/03/17 05:22:45;;;;;;;13.38;6.95;;;6.10;99.90;;;;;;2048837;28;20237;-75
2022/03/17 05:23:46;;;;;;;13.87;6.70;;;6.10;99.90;;;;;;2056612;28;20183;-73
2022/03/17 05:24:46;;;;;;;13.70;7.47;;;6.10;99.90;;;;;;2064168;28;20572;-74
2022/03/17 05:25:49;;;;;;;14.17;7.07;;;6.10;99.90;;;;;;2064525;28;20182;-74
2022/03/17 05:26:49;;;;;;;12.15;6.28;;;6.10;99.90;;;;;;2056731;28;20179;-73
2022/03/17 05:27:50;;;;;;;15.63;7.07;;;6.20;99.90;;;;;;2056291;28;20194;-74
2022/03/17 05:28:51;;;;;;;10.53;6.40;;;6.10;99.90;;;;;;2064555;28;20258;-74